createdAt,value
2017-06-23T00:00:23.199Z,95.50
2017-06-23T00:02:50.671Z,95.10
2017-06-23T00:05:18.114Z,95.00
2017-06-23T00:07:45.556Z,94.90
2017-06-23T00:10:13.019Z,95.00
2017-06-23T00:12:40.467Z,94.50
2017-06-23T00:15:07.919Z,94.80
2017-06-23T00:17:35.395Z,94.60
2017-06-23T00:20:02.888Z,94.50
2017-06-23T00:22:30.719Z,94.30
2017-06-23T00:24:58.343Z,94.30
2017-06-23T00:27:25.784Z,94.30
2017-06-23T00:29:53.218Z,94.40
2017-06-23T00:32:21.083Z,94.90
2017-06-23T00:34:48.920Z,95.40
2017-06-23T00:37:16.359Z,95.40
2017-06-23T00:39:43.826Z,95.50
2017-06-23T00:42:11.267Z,96.00
2017-06-23T00:44:38.705Z,96.40
2017-06-23T00:47:06.167Z,96.60
2017-06-23T00:49:33.618Z,96.80
2017-06-23T00:52:01.056Z,96.70
2017-06-23T00:54:28.698Z,97.00
2017-06-23T00:56:56.189Z,97.60
2017-06-23T00:59:23.627Z,98.10
2017-06-23T01:01:51.145Z,98.20
2017-06-23T01:04:18.867Z,98.20
2017-06-23T01:06:46.338Z,98.20
2017-06-23T01:09:14.149Z,98.20
2017-06-23T01:11:41.618Z,98.20
2017-06-23T01:14:09.084Z,98.20
2017-06-23T01:16:36.576Z,98.20
2017-06-23T01:19:04.065Z,98.20
2017-06-23T01:21:31.532Z,98.20
2017-06-23T01:23:59.384Z,98.20
2017-06-23T01:26:26.849Z,98.20
2017-06-23T01:28:54.715Z,98.20
2017-06-23T01:31:22.213Z,98.20
2017-06-23T01:33:49.685Z,98.20
2017-06-23T01:36:17.148Z,98.10
2017-06-23T01:38:44.933Z,98.20
2017-06-23T01:41:12.408Z,98.20
2017-06-23T01:43:39.885Z,98.20
2017-06-23T01:46:07.392Z,98.20
2017-06-23T01:48:34.852Z,98.20
2017-06-23T01:51:02.320Z,98.10
2017-06-23T01:53:29.976Z,98.20
2017-06-23T01:55:57.845Z,98.20
2017-06-23T01:58:25.312Z,98.20
2017-06-23T02:00:53.158Z,98.20
2017-06-23T02:03:20.630Z,98.20
2017-06-23T02:05:48.317Z,98.20
2017-06-23T02:08:15.800Z,98.20
2017-06-23T02:10:43.268Z,98.20
2017-06-23T02:13:10.744Z,98.20
2017-06-23T02:15:38.266Z,98.20
2017-06-23T02:18:05.759Z,98.00
2017-06-23T02:20:33.629Z,97.80
2017-06-23T02:23:01.389Z,97.70
2017-06-23T02:25:29.252Z,98.00
2017-06-23T02:27:57.109Z,97.80
2017-06-23T02:30:25.092Z,97.50
2017-06-23T02:32:52.556Z,97.50
2017-06-23T02:35:20.031Z,97.90
2017-06-23T02:37:47.533Z,97.50
2017-06-23T02:40:15.001Z,97.60
2017-06-23T02:42:42.866Z,97.40
2017-06-23T02:45:10.378Z,97.40
2017-06-23T02:47:37.845Z,96.70
2017-06-23T02:50:05.317Z,96.60
2017-06-23T02:52:32.816Z,96.00
2017-06-23T02:55:00.302Z,95.30
2017-06-23T02:57:27.769Z,95.30
2017-06-23T02:59:55.277Z,95.90
2017-06-23T03:02:22.756Z,96.40
2017-06-23T03:04:50.239Z,96.50
2017-06-23T03:07:19.050Z,96.60
2017-06-23T03:09:46.513Z,96.70
2017-06-23T03:12:14.384Z,96.00
2017-06-23T03:14:42.264Z,96.30
2017-06-23T03:17:09.730Z,96.30
2017-06-23T03:19:37.198Z,96.70
2017-06-23T03:22:04.785Z,96.30
2017-06-23T03:24:32.261Z,95.90
2017-06-23T03:27:00.145Z,96.50
2017-06-23T03:29:27.993Z,96.50
2017-06-23T03:31:55.858Z,96.10
2017-06-23T03:34:23.730Z,96.30
2017-06-23T03:36:51.793Z,96.60
2017-06-23T03:39:19.265Z,96.70
2017-06-23T03:41:47.139Z,96.30
2017-06-23T03:44:14.616Z,96.30
2017-06-23T03:46:42.076Z,96.80
2017-06-23T03:49:09.549Z,96.50
2017-06-23T03:51:37.295Z,96.50
2017-06-23T03:54:04.768Z,96.40
2017-06-23T03:56:32.394Z,96.30
2017-06-23T03:58:59.898Z,96.60
2017-06-23T04:01:27.782Z,96.40
2017-06-23T04:03:55.649Z,96.90
2017-06-23T04:06:23.170Z,96.90
2017-06-23T04:08:50.651Z,96.90
2017-06-23T04:11:18.521Z,96.70
2017-06-23T04:13:46.381Z,96.70
2017-06-23T04:16:14.261Z,96.90
2017-06-23T04:18:42.125Z,97.30
2017-06-23T04:21:09.633Z,97.40
2017-06-23T04:23:37.100Z,97.40
2017-06-23T04:26:04.568Z,97.80
2017-06-23T04:28:33.341Z,98.20
2017-06-23T04:31:00.805Z,98.20
2017-06-23T04:33:28.273Z,97.60
2017-06-23T04:35:56.037Z,98.10
2017-06-23T04:38:23.902Z,97.80
2017-06-23T04:40:51.365Z,97.80
2017-06-23T04:43:19.529Z,98.00
2017-06-23T04:45:47.392Z,97.70
2017-06-23T04:48:14.856Z,97.70
2017-06-23T04:50:42.768Z,97.90
2017-06-23T04:53:10.238Z,97.90
2017-06-23T04:55:37.704Z,97.80
2017-06-23T04:58:05.200Z,97.80
2017-06-23T05:00:32.669Z,97.20
2017-06-23T05:03:00.142Z,97.60
2017-06-23T05:05:27.633Z,97.70
2017-06-23T05:07:55.105Z,97.50
2017-06-23T05:10:22.581Z,97.40
2017-06-23T05:12:50.165Z,97.40
2017-06-23T05:15:17.638Z,97.00
2017-06-23T05:17:45.138Z,96.70
2017-06-23T05:20:13.028Z,96.80
2017-06-23T05:22:40.501Z,96.80
2017-06-23T05:25:07.977Z,97.40
2017-06-23T05:27:35.461Z,97.00
2017-06-23T05:30:02.937Z,96.90
2017-06-23T05:32:30.405Z,96.60
2017-06-23T05:34:58.090Z,96.10
2017-06-23T05:37:26.465Z,96.20
2017-06-23T05:39:53.936Z,96.20
2017-06-23T05:42:21.733Z,96.70
2017-06-23T05:44:49.477Z,96.30
2017-06-23T05:47:16.949Z,96.30
2017-06-23T05:49:44.433Z,96.80
2017-06-23T05:52:12.129Z,97.10
2017-06-23T05:54:39.596Z,97.10
2017-06-23T05:57:07.069Z,96.90
2017-06-23T05:59:34.571Z,97.40
2017-06-23T06:02:02.055Z,96.70
2017-06-23T06:04:29.523Z,96.30
2017-06-23T06:06:57.160Z,95.90
2017-06-23T06:09:24.634Z,95.80
2017-06-23T06:11:52.113Z,96.20
2017-06-23T06:14:19.601Z,96.80
2017-06-23T06:16:47.073Z,96.70
2017-06-23T06:19:14.534Z,96.70
2017-06-23T06:21:42.337Z,97.00
2017-06-23T06:24:09.821Z,96.90
2017-06-23T06:26:37.314Z,96.30
2017-06-23T06:29:04.913Z,96.50
2017-06-23T06:31:32.773Z,95.90
2017-06-23T06:34:00.648Z,96.30
2017-06-23T06:36:28.152Z,96.30
2017-06-23T06:38:55.621Z,96.60
2017-06-23T06:41:23.360Z,97.20
2017-06-23T06:43:51.069Z,97.70
2017-06-23T06:46:18.572Z,97.30
2017-06-23T06:48:46.033Z,97.50
2017-06-23T06:51:13.531Z,97.30
2017-06-23T06:53:41.017Z,97.80
2017-06-23T06:56:08.507Z,97.50
2017-06-23T06:58:36.043Z,96.30
2017-06-23T07:01:03.533Z,97.20
2017-06-23T07:03:31.005Z,98.00
2017-06-23T07:05:58.505Z,97.80
2017-06-23T07:08:25.988Z,97.70
2017-06-23T07:10:53.485Z,97.70
2017-06-23T07:13:21.156Z,97.30
2017-06-23T07:15:48.633Z,98.00
2017-06-23T07:18:16.104Z,98.20
2017-06-23T07:20:43.609Z,98.20
2017-06-23T07:23:11.088Z,97.90
2017-06-23T07:25:38.981Z,97.60
2017-06-23T07:28:06.604Z,97.60
2017-06-23T07:30:34.495Z,95.90
2017-06-23T07:33:01.991Z,95.90
2017-06-23T07:35:29.493Z,95.90
2017-06-23T07:37:56.985Z,96.40
2017-06-23T07:40:24.500Z,96.50
2017-06-23T07:42:52.009Z,96.00
2017-06-23T07:45:19.511Z,95.90
2017-06-23T07:47:47.008Z,96.20
2017-06-23T07:50:14.504Z,96.40
2017-06-23T07:52:41.973Z,96.00
2017-06-23T07:55:09.836Z,95.60
2017-06-23T07:57:38.005Z,95.80
2017-06-23T08:00:05.872Z,96.60
2017-06-23T08:02:33.898Z,96.40
2017-06-23T08:05:01.445Z,96.40
2017-06-23T08:07:28.929Z,96.10
2017-06-23T08:09:56.405Z,96.20
2017-06-23T08:12:23.903Z,96.00
2017-06-23T08:14:51.370Z,96.10
2017-06-23T08:17:18.855Z,96.90
2017-06-23T08:19:46.446Z,96.80
2017-06-23T08:22:13.916Z,96.30
2017-06-23T08:24:41.403Z,96.60
2017-06-23T08:27:08.895Z,96.80
2017-06-23T08:29:36.364Z,96.70
2017-06-23T08:32:03.859Z,95.80
2017-06-23T08:34:31.564Z,95.80
2017-06-23T08:36:59.034Z,96.30
2017-06-23T08:39:26.504Z,96.10
2017-06-23T08:41:54.344Z,96.10
2017-06-23T08:44:22.230Z,96.40
2017-06-23T08:46:49.693Z,96.40
2017-06-23T08:49:17.551Z,96.00
2017-06-23T08:51:45.458Z,95.60
2017-06-23T08:54:12.920Z,95.80
2017-06-23T08:56:40.827Z,95.40
2017-06-23T08:59:08.309Z,94.90
2017-06-23T09:01:35.769Z,95.40
2017-06-23T09:04:03.595Z,95.20
2017-06-23T09:06:31.493Z,95.10
2017-06-23T09:08:58.956Z,95.10
2017-06-23T09:11:26.774Z,95.40
2017-06-23T09:13:54.251Z,95.00
2017-06-23T09:16:21.737Z,94.90
2017-06-23T09:18:49.464Z,94.60
2017-06-23T09:21:17.146Z,94.50
2017-06-23T09:23:44.634Z,94.90
2017-06-23T09:26:12.433Z,95.00
2017-06-23T09:28:39.925Z,95.00
2017-06-23T09:31:07.408Z,94.80
2017-06-23T09:33:34.997Z,94.90
2017-06-23T09:36:02.478Z,94.50
2017-06-23T09:38:29.950Z,94.50
2017-06-23T09:40:57.474Z,94.70
2017-06-23T09:43:25.347Z,94.30
2017-06-23T09:45:52.823Z,94.30
2017-06-23T09:48:20.354Z,94.30
2017-06-23T09:50:47.837Z,94.40
2017-06-23T09:53:15.529Z,94.20
2017-06-23T09:55:43.028Z,94.20
2017-06-23T09:58:10.903Z,94.30
2017-06-23T10:00:38.480Z,94.30
2017-06-23T10:03:06.201Z,94.00
2017-06-23T10:05:34.071Z,93.70
2017-06-23T10:08:01.939Z,93.30
2017-06-23T10:10:29.460Z,93.30
2017-06-23T10:12:56.930Z,93.50
2017-06-23T10:15:24.396Z,93.10
2017-06-23T10:17:52.307Z,92.40
2017-06-23T10:20:19.771Z,92.40
2017-06-23T10:22:47.257Z,92.00
2017-06-23T10:25:15.356Z,91.80
2017-06-23T10:27:42.849Z,91.80
2017-06-23T10:30:10.315Z,90.70
2017-06-23T10:32:38.122Z,90.80
2017-06-23T10:35:05.985Z,89.70
2017-06-23T10:37:33.840Z,88.70
2017-06-23T10:40:01.356Z,88.80
2017-06-23T10:42:28.825Z,88.80
2017-06-23T10:44:56.292Z,87.70
2017-06-23T10:47:23.812Z,85.30
2017-06-23T10:49:51.295Z,84.50
2017-06-23T10:52:18.760Z,84.20
2017-06-23T10:54:46.545Z,83.40
2017-06-23T10:57:14.006Z,83.20
2017-06-23T10:59:41.869Z,82.50
2017-06-23T11:02:09.760Z,83.30
2017-06-23T11:04:37.221Z,83.30
2017-06-23T11:07:04.690Z,82.80
2017-06-23T11:09:32.192Z,83.40
2017-06-23T11:11:59.663Z,83.00
2017-06-23T11:14:27.536Z,82.20
2017-06-23T11:16:55.041Z,82.20
2017-06-23T11:19:22.509Z,81.70
2017-06-23T11:21:49.997Z,81.40
2017-06-23T11:24:17.897Z,82.00
2017-06-23T11:26:45.541Z,82.00
2017-06-23T11:29:13.006Z,81.60
2017-06-23T11:31:40.501Z,81.10
2017-06-23T11:34:08.701Z,80.60
2017-06-23T11:36:36.160Z,79.90
2017-06-23T11:39:04.065Z,79.10
2017-06-23T11:41:31.562Z,79.10
2017-06-23T11:43:59.033Z,78.80
2017-06-23T11:46:26.546Z,78.00
2017-06-23T11:48:54.003Z,78.30
2017-06-23T11:51:21.479Z,78.50
2017-06-23T11:53:48.980Z,77.00
2017-06-23T11:56:16.462Z,76.80
2017-06-23T11:58:45.877Z,77.00
2017-06-23T12:01:13.388Z,77.20
2017-06-23T12:03:40.862Z,77.10
2017-06-23T12:06:08.334Z,77.50
2017-06-23T12:08:35.830Z,77.50
2017-06-23T12:11:03.700Z,76.90
2017-06-23T12:13:31.565Z,77.40
2017-06-23T12:15:59.474Z,78.30
2017-06-23T12:18:27.909Z,78.30
2017-06-23T12:20:55.784Z,76.30
2017-06-23T12:23:23.932Z,74.60
2017-06-23T12:25:51.393Z,74.60
2017-06-23T12:28:19.264Z,73.30
2017-06-23T12:30:47.142Z,73.20
2017-06-23T12:33:14.610Z,73.20
2017-06-23T12:35:43.232Z,72.70
2017-06-23T12:38:11.003Z,73.00
2017-06-23T12:40:39.095Z,71.90
2017-06-23T12:43:06.681Z,70.90
2017-06-23T12:45:34.907Z,72.00
2017-06-23T12:48:02.391Z,74.80
2017-06-23T12:50:30.265Z,74.70
2017-06-23T12:52:58.177Z,76.00
2017-06-23T12:55:25.645Z,76.00
2017-06-23T12:57:53.125Z,75.90
2017-06-23T13:00:20.628Z,75.40
2017-06-23T13:02:48.096Z,74.30
2017-06-23T13:05:15.564Z,74.30
2017-06-23T13:07:43.448Z,73.80
2017-06-23T13:10:10.913Z,73.20
2017-06-23T13:12:39.146Z,73.80
2017-06-23T13:15:06.638Z,73.80
2017-06-23T13:17:34.129Z,73.40
2017-06-23T13:20:01.618Z,73.20
2017-06-23T13:22:29.285Z,73.20
2017-06-23T13:24:56.771Z,73.30
2017-06-23T13:27:24.245Z,72.80
2017-06-23T13:29:51.761Z,73.30
2017-06-23T13:32:19.248Z,74.10
2017-06-23T13:34:46.753Z,74.60
2017-06-23T13:37:14.396Z,75.30
2017-06-23T13:39:41.881Z,74.80
2017-06-23T13:42:09.362Z,76.10
2017-06-23T13:44:36.841Z,75.00
2017-06-23T13:47:04.323Z,74.60
2017-06-23T13:49:31.806Z,73.40
2017-06-23T13:51:59.300Z,72.60
2017-06-23T13:54:26.769Z,72.80
2017-06-23T13:56:54.240Z,72.00
2017-06-23T13:59:21.879Z,74.90
2017-06-23T14:01:49.346Z,76.80
2017-06-23T14:04:16.818Z,75.90
2017-06-23T14:06:44.306Z,75.90
2017-06-23T14:09:11.788Z,75.50
2017-06-23T14:11:39.664Z,74.60
2017-06-23T14:14:07.275Z,74.60
2017-06-23T14:16:34.760Z,75.00
2017-06-23T14:19:02.797Z,76.80
2017-06-23T14:21:30.546Z,76.80
2017-06-23T14:23:58.040Z,76.90
2017-06-23T14:26:25.541Z,77.10
2017-06-23T14:28:53.211Z,78.10
2017-06-23T14:31:20.701Z,78.10
2017-06-23T14:33:48.174Z,78.30
2017-06-23T14:36:15.830Z,78.40
2017-06-23T14:38:43.389Z,78.90
2017-06-23T14:41:11.299Z,79.30
2017-06-23T14:43:39.199Z,79.40
2017-06-23T14:46:06.704Z,79.90
2017-06-23T14:48:34.173Z,79.60
2017-06-23T14:51:01.688Z,80.00
2017-06-23T14:53:29.173Z,80.30
2017-06-23T14:55:56.648Z,80.70
2017-06-23T14:58:24.979Z,80.10
2017-06-23T15:00:52.477Z,80.20
2017-06-23T15:03:19.974Z,81.30
2017-06-23T15:05:47.740Z,81.90
2017-06-23T15:08:15.224Z,82.20
2017-06-23T15:10:43.112Z,82.90
2017-06-23T15:13:10.655Z,82.90
2017-06-23T15:15:38.176Z,82.80
2017-06-23T15:18:05.951Z,82.20
2017-06-23T15:20:33.505Z,82.40
2017-06-23T15:23:01.287Z,81.70
2017-06-23T15:25:29.710Z,81.40
2017-06-23T15:27:57.202Z,81.80
2017-06-23T15:30:24.674Z,81.30
2017-06-23T15:32:52.848Z,81.70
2017-06-23T15:35:20.748Z,82.00
2017-06-23T15:37:48.324Z,82.00
2017-06-23T15:40:15.826Z,82.50
2017-06-23T15:42:44.190Z,82.60
2017-06-23T15:45:11.717Z,82.70
2017-06-23T15:47:39.215Z,83.30
2017-06-23T15:50:06.972Z,83.40
2017-06-23T15:52:34.847Z,83.70
2017-06-23T15:55:02.328Z,83.70
2017-06-23T15:57:30.176Z,84.30
2017-06-23T15:59:57.702Z,84.40
2017-06-23T16:02:25.206Z,84.30
2017-06-23T16:04:52.816Z,84.20
2017-06-23T16:07:20.309Z,84.80
2017-06-23T16:09:47.839Z,84.70
2017-06-23T16:12:15.730Z,85.20
2017-06-23T16:14:43.213Z,85.20
2017-06-23T16:17:11.496Z,85.80
2017-06-23T16:19:39.022Z,85.80
2017-06-23T16:22:06.522Z,86.50
2017-06-23T16:24:34.010Z,86.40
2017-06-23T16:27:01.619Z,86.80
2017-06-23T16:29:29.354Z,86.10
2017-06-23T16:31:57.021Z,85.90
2017-06-23T16:34:25.120Z,86.10
2017-06-23T16:36:52.995Z,85.40
2017-06-23T16:39:20.567Z,85.10
2017-06-23T16:41:48.640Z,85.20
2017-06-23T16:44:16.137Z,85.20
2017-06-23T16:46:43.606Z,85.40
2017-06-23T16:49:11.351Z,86.20
2017-06-23T16:51:38.909Z,85.60
2017-06-23T16:54:06.369Z,86.20
2017-06-23T16:56:34.298Z,85.40
2017-06-23T16:59:02.094Z,85.90
2017-06-23T17:01:29.597Z,85.60
2017-06-23T17:03:57.652Z,86.10
2017-06-23T17:06:25.119Z,86.10
2017-06-23T17:08:52.608Z,86.70
2017-06-23T17:11:20.267Z,86.20
2017-06-23T17:13:48.136Z,86.20
2017-06-23T17:16:15.605Z,86.30
2017-06-23T17:18:43.116Z,86.10
2017-06-23T17:21:10.585Z,86.30
2017-06-23T17:23:38.056Z,86.10
2017-06-23T17:26:06.132Z,86.80
2017-06-23T17:28:33.805Z,86.80
2017-06-23T17:31:01.417Z,86.70
2017-06-23T17:33:29.480Z,86.60
2017-06-23T17:35:57.372Z,86.90
2017-06-23T17:38:24.900Z,86.90
2017-06-23T17:40:52.412Z,87.00
2017-06-23T17:43:19.881Z,87.10
2017-06-23T17:45:47.365Z,87.10
2017-06-23T17:48:14.872Z,87.10
2017-06-23T17:50:42.353Z,86.70
2017-06-23T17:53:09.828Z,87.00
2017-06-23T17:55:37.629Z,87.30
2017-06-23T17:58:05.106Z,87.20
2017-06-23T18:00:32.602Z,87.20
2017-06-23T18:03:00.496Z,88.30
2017-06-23T18:05:28.359Z,87.60
2017-06-23T18:07:55.825Z,87.80
2017-06-23T18:10:23.494Z,87.80
2017-06-23T18:12:51.010Z,87.60
2017-06-23T18:15:18.481Z,87.70
2017-06-23T18:17:46.465Z,88.10
2017-06-23T18:20:14.332Z,88.90
2017-06-23T18:22:42.196Z,89.10
2017-06-23T18:25:10.097Z,89.00
2017-06-23T18:27:37.566Z,89.00
2017-06-23T18:30:05.028Z,88.60
2017-06-23T18:32:32.633Z,88.80
2017-06-23T18:35:00.101Z,89.40
2017-06-23T18:37:27.569Z,89.50
2017-06-23T18:39:55.061Z,89.60
2017-06-23T18:42:22.542Z,89.90
2017-06-23T18:44:50.041Z,89.70
2017-06-23T18:47:17.549Z,89.80
2017-06-23T18:49:45.014Z,90.00
2017-06-23T18:52:12.933Z,90.80
2017-06-23T18:54:40.605Z,91.20
2017-06-23T18:57:08.089Z,91.40
2017-06-23T18:59:35.957Z,92.30
2017-06-23T19:02:03.454Z,92.20
2017-06-23T19:04:30.933Z,92.20
2017-06-23T19:06:58.407Z,92.20
2017-06-23T19:09:25.929Z,92.10
2017-06-23T19:11:53.405Z,92.40
2017-06-23T19:14:20.959Z,92.30
2017-06-23T19:16:49.174Z,92.30
2017-06-23T19:19:16.666Z,92.30
2017-06-23T19:21:44.157Z,92.20
2017-06-23T19:24:11.813Z,92.30
2017-06-23T19:26:39.321Z,92.30
2017-06-23T19:29:06.813Z,93.50
2017-06-23T19:31:34.338Z,92.90
2017-06-23T19:34:01.816Z,92.80
2017-06-23T19:36:29.320Z,92.80
2017-06-23T19:38:57.081Z,92.80
2017-06-23T19:41:24.603Z,93.30
2017-06-23T19:43:52.121Z,92.90
2017-06-23T19:46:19.983Z,93.20
2017-06-23T19:48:47.489Z,92.80
2017-06-23T19:51:15.351Z,93.00
2017-06-23T19:53:43.016Z,92.90
2017-06-23T19:56:10.498Z,93.00
2017-06-23T19:58:38.375Z,92.70
2017-06-23T20:01:05.857Z,92.70
2017-06-23T20:03:33.404Z,93.10
2017-06-23T20:06:00.890Z,92.70
2017-06-23T20:08:28.408Z,92.50
2017-06-23T20:10:55.875Z,93.50
2017-06-23T20:13:23.360Z,93.10
2017-06-23T20:15:51.050Z,93.60
2017-06-23T20:18:18.548Z,93.40
2017-06-23T20:20:46.019Z,93.40
2017-06-23T20:23:13.770Z,93.20
2017-06-23T20:25:41.241Z,92.70
2017-06-23T20:28:08.713Z,93.20
2017-06-23T20:30:36.314Z,93.40
2017-06-23T20:33:03.807Z,93.50
2017-06-23T20:35:31.518Z,93.10
2017-06-23T20:37:59.087Z,93.00
2017-06-23T20:40:26.574Z,93.20
2017-06-23T20:42:54.045Z,93.00
2017-06-23T20:45:21.548Z,93.10
2017-06-23T20:47:49.408Z,93.50
2017-06-23T20:50:16.873Z,93.40
2017-06-23T20:52:44.461Z,93.50
2017-06-23T20:55:11.936Z,93.30
2017-06-23T20:57:40.419Z,93.30
2017-06-23T21:00:08.135Z,93.40
2017-06-23T21:02:35.644Z,93.50
2017-06-23T21:05:03.116Z,93.50
2017-06-23T21:07:30.598Z,93.40
2017-06-23T21:09:58.335Z,93.60
2017-06-23T21:12:25.853Z,93.70
2017-06-23T21:14:53.454Z,93.60
2017-06-23T21:17:21.980Z,93.80
2017-06-23T21:19:49.964Z,93.80
2017-06-23T21:22:18.085Z,93.70
2017-06-23T21:24:46.601Z,93.80
2017-06-23T21:27:14.088Z,93.80
2017-06-23T21:29:41.794Z,93.90
2017-06-23T21:32:09.276Z,93.70
2017-06-23T21:34:36.927Z,93.90
2017-06-23T21:37:04.444Z,94.00
2017-06-23T21:39:32.315Z,93.90
2017-06-23T21:41:59.805Z,93.90
2017-06-23T21:44:27.345Z,94.00
2017-06-23T21:46:55.205Z,93.80
2017-06-23T21:49:22.693Z,93.80
2017-06-23T21:51:50.767Z,93.90
2017-06-23T21:54:18.241Z,93.70
2017-06-23T21:56:45.709Z,93.80
2017-06-23T21:59:13.304Z,93.90
2017-06-23T22:01:40.969Z,94.00
2017-06-23T22:04:08.456Z,93.80
2017-06-23T22:06:35.971Z,93.80
2017-06-23T22:09:03.925Z,93.90
2017-06-23T22:11:31.443Z,93.90
2017-06-23T22:13:59.492Z,93.70
2017-06-23T22:16:26.996Z,93.80
2017-06-23T22:18:54.488Z,93.90
2017-06-23T22:21:22.157Z,93.70
2017-06-23T22:23:49.637Z,93.90
2017-06-23T22:26:17.107Z,93.80
2017-06-23T22:28:44.620Z,93.80
2017-06-23T22:31:12.491Z,94.00
2017-06-23T22:33:39.958Z,94.00
2017-06-23T22:36:07.460Z,94.40
2017-06-23T22:38:34.926Z,94.30
2017-06-23T22:41:02.423Z,94.60
2017-06-23T22:43:30.164Z,94.70
2017-06-23T22:45:57.647Z,94.70
2017-06-23T22:48:25.112Z,94.90
2017-06-23T22:50:52.620Z,94.80
2017-06-23T22:53:20.489Z,95.40
2017-06-23T22:55:48.781Z,95.40
2017-06-23T22:58:16.293Z,95.40
2017-06-23T23:00:43.757Z,95.30
2017-06-23T23:03:11.617Z,95.20
2017-06-23T23:05:39.518Z,95.60
2017-06-23T23:08:07.004Z,95.60
2017-06-23T23:10:34.488Z,95.80
2017-06-23T23:13:02.420Z,96.10
2017-06-23T23:15:29.907Z,96.10
2017-06-23T23:17:57.392Z,96.40
2017-06-23T23:20:25.147Z,96.80
2017-06-23T23:22:53.024Z,96.90
2017-06-23T23:25:20.504Z,96.90
2017-06-23T23:27:48.228Z,96.80
2017-06-23T23:30:16.107Z,97.30
2017-06-23T23:32:44.098Z,97.30
2017-06-23T23:35:11.607Z,97.10
2017-06-23T23:37:39.479Z,97.20
2017-06-23T23:40:07.363Z,97.50
2017-06-23T23:42:35.213Z,97.50
2017-06-23T23:45:03.086Z,97.80
2017-06-23T23:47:30.571Z,97.80
2017-06-23T23:49:58.395Z,97.80
2017-06-23T23:52:26.275Z,97.60
2017-06-23T23:54:53.754Z,97.60
2017-06-23T23:57:21.579Z,97.90
2017-06-23T23:59:49.462Z,97.80
